Wacker Heights, OH

1:52 PM EST on January 20, 2017 (GMT -0500)
Fairfield County Weather | | Change Station

Elev 958 ft 39.75 °N, 82.57 °W | Updated 11 seconds ago

Overcast
Overcast
59.0 °F
Feels Like 59.0 °F
N
13.8
Wind Variable Wind from SW
Gusts 13.8 mph

Today
High -- | Low -- °F
--% Chance of Precip.
Yesterday
High -- | Low -- °F
Precip. -- in
Pressure 29.70 in
Visibility 10.0 miles
Clouds Few 2000 ft
Scattered Clouds 2500 ft
Overcast 4200 ft
Dew Point 52 °F
Humidity 78%
Rainfall 0.53 in
Snow Depth Not available.
7:47 AM 5:36 PM
Last Quarter, 42% visible
SPECI KLHQ 201810Z AUTO 24009KT 10SM FEW020 SCT025 OVC042 16/12 A2970 RMK AO2 T01610117
Pressure 29.70 in
Visibility 10.0 miles
Clouds Few 2000 ft
Scattered Clouds 2500 ft
Overcast 4200 ft
Dew Point 52 °F
Humidity 78%
Rainfall 0.53 in
Snow Depth Not available.
7:47 AM 5:36 PM
Last Quarter, 42% visible
SPECI KLHQ 201810Z AUTO 24009KT 10SM FEW020 SCT025 OVC042 16/12 A2970 RMK AO2 T01610117

Get Your Daily Forecast Email!

Thanks for signing up!

Be on the lookout for a verification email in your inbox.

You'll start receiving the daily forecast at 8 AM.

×

10-Day Weather Forecast

Almanac

Astronomy

Jan. 20, 2017 Rise Set
Actual Time
Civil Twilight
Nautical Twilight
Astronomical Twilight
Moon
Length of Visible Light
Length of Day
Tomorrow will be .
, % of the Moon is Illuminated

Today's Extremes

State Highs State Lows

Community

WunderPhotos

Upload Photos

1,962,540 photos uploaded!

WunderBlog® & News

Nearby

Air Quality

  Air Quality AQ Index Pollutant
Not available.

Snow Depth

Station Depth Elevation

Earthquake Activity

City Distance Mag. Time & Date
Minimum magnitude displayed is 2.5.

Coastal Water Temperatures

Place Temperature

Stations

Nearby Weather Stations

Station Location Temp. Windchill Dew Point Humidity Wind Precip. Elev Updated Type
                   

Watches & Warnings

There are currently no watches in effect.